createdAt,value
2023-09-23T00:01:05.872Z,2.90
2023-09-23T00:03:35.549Z,3.33
2023-09-23T00:06:03.846Z,3.33
2023-09-23T00:08:31.153Z,2.83
2023-09-23T00:10:58.340Z,3.17
2023-09-23T00:13:26.396Z,4.40
2023-09-23T00:15:53.959Z,4.20
2023-09-23T00:18:21.107Z,3.35
2023-09-23T00:20:48.481Z,3.50
2023-09-23T00:23:16.655Z,3.20
2023-09-23T00:25:47.995Z,3.35
2023-09-23T00:28:16.385Z,3.15
2023-09-23T00:30:47.493Z,3.95
2023-09-23T00:33:18.604Z,3.43
2023-09-23T00:35:49.276Z,3.33
2023-09-23T00:38:17.146Z,3.35
2023-09-23T00:40:45.573Z,3.88
2023-09-23T00:43:18.490Z,3.70
2023-09-23T00:45:52.531Z,3.58
2023-09-23T00:48:23.170Z,3.70
2023-09-23T00:50:53.779Z,4.13
2023-09-23T00:53:22.642Z,4.18
2023-09-23T00:55:56.624Z,3.40
2023-09-23T00:58:26.362Z,3.85
2023-09-23T01:00:55.907Z,3.65
2023-09-23T01:03:24.392Z,3.78
2023-09-23T01:06:10.231Z,3.47
2023-09-23T01:08:39.764Z,3.83
2023-09-23T01:11:08.994Z,3.55
2023-09-23T01:13:37.297Z,3.80
2023-09-23T01:16:10.310Z,3.63
2023-09-23T01:18:37.420Z,3.10
2023-09-23T01:21:04.522Z,4.00
2023-09-23T01:23:35.822Z,3.80
2023-09-23T01:26:03.417Z,3.55
2023-09-23T01:28:33.766Z,3.67
2023-09-23T01:31:04.298Z,3.45
2023-09-23T01:33:32.029Z,3.42
2023-09-23T01:36:04.129Z,3.38
2023-09-23T01:38:32.321Z,5.45
2023-09-23T01:41:03.591Z,3.10
2023-09-23T01:46:05.541Z,3.70
2023-09-23T01:48:33.261Z,3.95
2023-09-23T01:51:00.780Z,3.35
2023-09-23T01:53:29.705Z,4.28
2023-09-23T01:55:57.153Z,3.60
2023-09-23T01:58:24.662Z,3.72
2023-09-23T02:00:53.292Z,4.22
2023-09-23T02:03:21.828Z,4.07
2023-09-23T02:05:49.226Z,4.07
2023-09-23T02:08:17.389Z,3.75
2023-09-23T02:10:46.427Z,4.10
2023-09-23T02:13:13.911Z,4.50
2023-09-23T02:15:41.094Z,4.28
2023-09-23T02:18:08.331Z,3.97
2023-09-23T02:20:35.994Z,3.70
2023-09-23T02:23:04.464Z,3.80
2023-09-23T02:25:31.602Z,4.05
2023-09-23T02:27:58.964Z,3.72
2023-09-23T02:30:26.758Z,4.22
2023-09-23T02:32:54.299Z,3.83
2023-09-23T02:35:21.695Z,4.68
2023-09-23T02:37:50.140Z,4.72
2023-09-23T02:40:19.340Z,4.07
2023-09-23T02:42:48.249Z,4.95
2023-09-23T02:45:17.873Z,4.00
2023-09-23T02:47:46.451Z,4.63
2023-09-23T02:50:15.432Z,4.38
2023-09-23T02:52:46.439Z,4.40
2023-09-23T02:55:16.532Z,5.10
2023-09-23T02:57:48.127Z,4.38
2023-09-23T03:00:20.292Z,4.47
2023-09-23T03:02:54.611Z,3.95
2023-09-23T03:05:28.721Z,5.03
2023-09-23T03:07:59.472Z,3.70
2023-09-23T03:10:42.023Z,5.07
2023-09-23T03:13:13.185Z,5.28
2023-09-23T03:15:49.820Z,5.30
2023-09-23T03:18:19.163Z,4.22
2023-09-23T03:20:46.417Z,4.38
2023-09-23T03:23:13.805Z,4.43
2023-09-23T03:25:48.563Z,4.30
2023-09-23T03:28:17.605Z,5.65
2023-09-23T03:30:49.761Z,4.60
2023-09-23T03:33:22.660Z,4.65
2023-09-23T03:35:51.106Z,5.60
2023-09-23T03:38:19.121Z,6.65
2023-09-23T03:41:04.014Z,4.88
2023-09-23T03:43:31.396Z,4.57
2023-09-23T03:45:58.551Z,4.93
2023-09-23T03:48:26.904Z,4.80
2023-09-23T03:50:54.762Z,5.07
2023-09-23T03:53:23.169Z,4.38
2023-09-23T03:55:53.806Z,5.05
2023-09-23T03:58:21.087Z,4.47
2023-09-23T04:00:48.724Z,5.38
2023-09-23T04:03:19.540Z,4.65
2023-09-23T04:05:59.171Z,4.78
2023-09-23T04:08:27.735Z,5.68
2023-09-23T04:10:54.831Z,5.22
2023-09-23T04:13:21.996Z,6.32
2023-09-23T04:15:50.005Z,5.03
2023-09-23T04:18:19.793Z,5.40
2023-09-23T04:20:49.674Z,6.50
2023-09-23T04:23:16.966Z,4.88
2023-09-23T04:25:44.182Z,4.90
2023-09-23T04:28:11.389Z,5.57
2023-09-23T04:30:38.909Z,4.75
2023-09-23T04:33:06.312Z,4.25
2023-09-23T04:35:34.338Z,4.32
2023-09-23T04:38:01.749Z,4.13
2023-09-23T04:40:28.851Z,3.95
2023-09-23T04:42:56.110Z,3.88
2023-09-23T04:45:25.256Z,4.05
2023-09-23T04:47:52.628Z,3.30
2023-09-23T04:50:20.428Z,3.03
2023-09-23T04:52:48.178Z,3.33
2023-09-23T04:55:15.412Z,2.92
2023-09-23T04:57:42.541Z,2.97
2023-09-23T05:00:16.013Z,2.90
2023-09-23T05:02:43.302Z,3.38
2023-09-23T05:05:13.667Z,2.67
2023-09-23T05:07:41.197Z,2.97
2023-09-23T05:10:10.690Z,2.70
2023-09-23T05:12:37.805Z,2.80
2023-09-23T05:15:05.325Z,2.90
2023-09-23T05:17:32.458Z,2.95
2023-09-23T05:19:59.990Z,3.25
2023-09-23T05:22:27.187Z,3.22
2023-09-23T05:24:58.823Z,2.63
2023-09-23T05:27:26.052Z,2.70
2023-09-23T05:29:54.649Z,2.90
2023-09-23T05:32:22.084Z,4.10
2023-09-23T05:34:52.860Z,2.88
2023-09-23T05:37:20.339Z,3.63
2023-09-23T05:39:47.563Z,3.35
2023-09-23T05:42:17.125Z,4.15
2023-09-23T05:44:45.350Z,3.10
2023-09-23T05:47:12.548Z,4.40
2023-09-23T05:49:40.171Z,3.65
2023-09-23T05:52:07.430Z,3.90
2023-09-23T05:54:34.872Z,4.03
2023-09-23T05:57:02.064Z,3.10
2023-09-23T05:59:29.457Z,3.10
2023-09-23T06:01:56.658Z,3.40
2023-09-23T06:04:23.753Z,2.92
2023-09-23T06:06:50.971Z,3.35
2023-09-23T06:09:18.098Z,2.67
2023-09-23T06:11:45.460Z,2.78
2023-09-23T06:14:13.607Z,3.40
2023-09-23T06:16:40.722Z,2.55
2023-09-23T06:19:08.983Z,3.20
2023-09-23T06:21:37.953Z,3.30
2023-09-23T06:24:05.224Z,3.10
2023-09-23T06:26:32.475Z,3.45
2023-09-23T06:28:59.807Z,2.88
2023-09-23T06:31:27.195Z,4.43
2023-09-23T06:33:54.309Z,4.05
2023-09-23T06:36:21.672Z,2.70
2023-09-23T06:38:48.783Z,3.25
2023-09-23T06:41:15.842Z,3.28
2023-09-23T06:43:43.041Z,4.15
2023-09-23T06:46:10.157Z,2.80
2023-09-23T06:48:37.193Z,3.67
2023-09-23T06:51:04.714Z,3.38
2023-09-23T06:53:32.474Z,3.50
2023-09-23T06:55:59.618Z,2.90
2023-09-23T06:58:26.937Z,3.35
2023-09-23T07:00:55.559Z,3.47
2023-09-23T07:03:22.949Z,3.85
2023-09-23T07:05:50.976Z,2.92
2023-09-23T07:08:19.184Z,3.40
2023-09-23T07:10:46.392Z,2.85
2023-09-23T07:13:13.589Z,3.28
2023-09-23T07:15:41.988Z,3.13
2023-09-23T07:18:10.684Z,3.03
2023-09-23T07:20:37.927Z,3.30
2023-09-23T07:23:05.324Z,2.85
2023-09-23T07:25:40.816Z,3.00
2023-09-23T07:28:08.101Z,3.08
2023-09-23T07:30:36.897Z,2.88
2023-09-23T07:33:04.367Z,3.28
2023-09-23T07:35:33.028Z,2.63
2023-09-23T07:38:04.150Z,2.70
2023-09-23T07:40:32.045Z,3.15
2023-09-23T07:42:59.594Z,3.33
2023-09-23T07:45:26.871Z,3.33
2023-09-23T07:47:54.157Z,3.30
2023-09-23T07:50:22.048Z,3.60
2023-09-23T07:52:49.444Z,2.90
2023-09-23T07:55:16.611Z,2.38
2023-09-23T07:57:43.684Z,4.22
2023-09-23T08:00:11.451Z,3.15
2023-09-23T08:02:41.260Z,3.25
2023-09-23T08:05:09.439Z,3.30
2023-09-23T08:07:36.565Z,2.97
2023-09-23T08:10:06.302Z,2.83
2023-09-23T08:12:36.558Z,3.35
2023-09-23T08:15:04.871Z,2.95
2023-09-23T08:17:32.744Z,3.95
2023-09-23T08:20:00.801Z,3.22
2023-09-23T08:22:28.013Z,3.42
2023-09-23T08:24:55.239Z,3.60
2023-09-23T08:27:22.306Z,3.45
2023-09-23T08:29:50.909Z,3.40
2023-09-23T08:32:19.624Z,2.92
2023-09-23T08:34:46.956Z,2.97
2023-09-23T08:37:14.024Z,3.22
2023-09-23T08:39:41.158Z,3.55
2023-09-23T08:42:08.844Z,3.75
2023-09-23T08:44:36.516Z,3.20
2023-09-23T08:47:03.881Z,3.65
2023-09-23T08:49:31.906Z,4.10
2023-09-23T08:52:00.904Z,3.55
2023-09-23T08:54:30.279Z,3.63
2023-09-23T08:56:57.638Z,3.80
2023-09-23T08:59:28.085Z,3.92
2023-09-23T09:01:58.049Z,3.45
2023-09-23T09:04:25.549Z,3.75
2023-09-23T09:06:54.485Z,3.45
2023-09-23T09:09:22.198Z,2.88
2023-09-23T09:11:51.228Z,2.97
2023-09-23T09:14:19.083Z,2.63
2023-09-23T09:16:46.839Z,3.35
2023-09-23T09:19:14.184Z,2.60
2023-09-23T09:21:42.609Z,2.55
2023-09-23T09:24:10.654Z,2.85
2023-09-23T09:26:39.468Z,3.85
2023-09-23T09:29:06.747Z,2.90
2023-09-23T09:31:35.411Z,3.53
2023-09-23T09:34:12.681Z,3.05
2023-09-23T09:36:40.423Z,3.40
2023-09-23T09:39:11.976Z,2.80
2023-09-23T09:41:50.848Z,3.83
2023-09-23T09:44:22.252Z,2.97
2023-09-23T09:46:51.623Z,2.83
2023-09-23T09:49:19.490Z,2.63
2023-09-23T09:51:52.860Z,3.00
2023-09-23T09:54:22.470Z,2.85
2023-09-23T09:56:54.177Z,3.03
2023-09-23T09:59:28.618Z,3.15
2023-09-23T10:02:00.716Z,2.83
2023-09-23T10:04:35.423Z,2.95
2023-09-23T10:07:08.696Z,3.30
2023-09-23T10:09:39.830Z,2.60
2023-09-23T10:12:08.421Z,2.10
2023-09-23T10:14:35.535Z,3.45
2023-09-23T10:17:05.470Z,2.22
2023-09-23T10:19:34.058Z,2.60
2023-09-23T10:22:12.448Z,2.45
2023-09-23T10:24:39.519Z,2.30
2023-09-23T10:27:07.570Z,2.28
2023-09-23T10:29:49.016Z,3.10
2023-09-23T10:32:17.884Z,2.28
2023-09-23T10:34:54.722Z,1.92
2023-09-23T10:37:32.795Z,1.90
2023-09-23T10:40:13.821Z,2.30
2023-09-23T10:42:45.970Z,1.98
2023-09-23T10:45:14.642Z,2.72
2023-09-23T10:47:45.312Z,2.25
2023-09-23T10:50:13.059Z,2.80
2023-09-23T10:52:40.733Z,2.42
2023-09-23T10:55:10.821Z,2.97
2023-09-23T10:57:38.087Z,2.55
2023-09-23T11:00:26.502Z,2.00
2023-09-23T11:02:54.447Z,2.20
2023-09-23T11:05:23.368Z,1.40
2023-09-23T11:07:57.945Z,1.35
2023-09-23T11:10:25.193Z,1.35
2023-09-23T11:12:56.177Z,1.60
2023-09-23T11:15:23.530Z,1.45
2023-09-23T11:17:55.935Z,1.63
2023-09-23T11:20:33.715Z,1.42
2023-09-23T11:23:06.795Z,1.63
2023-09-23T11:25:43.043Z,1.45
2023-09-23T11:28:21.354Z,1.35
2023-09-23T11:30:49.631Z,1.75
2023-09-23T11:33:17.211Z,1.65
2023-09-23T11:35:45.331Z,2.00
2023-09-23T11:38:13.053Z,1.67
2023-09-23T11:40:41.602Z,2.90
2023-09-23T11:43:08.797Z,3.13
2023-09-23T11:45:36.091Z,4.70
2023-09-23T11:48:07.372Z,5.10
2023-09-23T11:50:34.694Z,3.87
2023-09-23T11:53:01.814Z,5.15
2023-09-23T11:55:28.955Z,5.25
2023-09-23T11:57:56.077Z,4.45
2023-09-23T12:00:23.142Z,4.00
2023-09-23T12:02:50.265Z,4.25
2023-09-23T12:05:22.040Z,4.55
2023-09-23T12:07:49.366Z,3.92
2023-09-23T12:10:16.555Z,3.03
2023-09-23T12:12:46.651Z,3.42
2023-09-23T12:15:13.783Z,3.20
2023-09-23T12:17:40.884Z,2.58
2023-09-23T12:20:12.949Z,3.05
2023-09-23T12:25:08.173Z,2.45
2023-09-23T12:27:35.704Z,2.30
2023-09-23T12:30:03.271Z,2.53
2023-09-23T12:32:31.862Z,2.45
2023-09-23T12:34:59.108Z,3.03
2023-09-23T12:37:28.557Z,3.13
2023-09-23T12:39:57.115Z,3.72
2023-09-23T12:42:24.568Z,3.63
2023-09-23T12:44:51.946Z,3.38
2023-09-23T12:47:19.187Z,3.10
2023-09-23T12:49:46.948Z,4.30
2023-09-23T12:52:14.095Z,3.47
2023-09-23T12:54:41.208Z,3.50
2023-09-23T12:57:08.293Z,3.30
2023-09-23T12:59:35.521Z,3.53
2023-09-23T13:02:02.862Z,3.97
2023-09-23T13:04:30.598Z,3.20
2023-09-23T13:06:57.722Z,3.40
2023-09-23T13:09:24.832Z,3.38
2023-09-23T13:11:52.152Z,2.88
2023-09-23T13:14:22.303Z,3.22
2023-09-23T13:16:51.393Z,3.85
2023-09-23T13:19:20.209Z,4.40
2023-09-23T13:21:47.951Z,3.88
2023-09-23T13:24:15.174Z,3.90
2023-09-23T13:26:42.546Z,3.53
2023-09-23T13:29:09.895Z,3.65
2023-09-23T13:31:37.291Z,3.85
2023-09-23T13:34:07.145Z,3.70
2023-09-23T13:36:34.604Z,4.07
2023-09-23T13:39:02.105Z,3.70
2023-09-23T13:41:29.869Z,3.88
2023-09-23T13:43:57.398Z,3.50
2023-09-23T13:46:25.939Z,3.20
2023-09-23T13:48:53.302Z,3.40
2023-09-23T13:51:20.509Z,4.03
2023-09-23T13:53:48.343Z,3.30
2023-09-23T13:56:16.354Z,3.00
2023-09-23T13:58:44.269Z,3.70
2023-09-23T14:01:12.148Z,3.33
2023-09-23T14:03:39.796Z,3.05
2023-09-23T14:06:07.754Z,2.95
2023-09-23T14:08:35.331Z,3.10
2023-09-23T14:11:06.352Z,2.60
2023-09-23T14:13:34.054Z,2.72
2023-09-23T14:16:02.093Z,2.63
2023-09-23T14:18:29.941Z,2.67
2023-09-23T14:20:57.501Z,2.20
2023-09-23T14:23:25.516Z,1.77
2023-09-23T14:25:53.334Z,1.65
2023-09-23T14:28:21.129Z,1.90
2023-09-23T14:30:48.722Z,1.90
2023-09-23T14:33:16.560Z,2.20
2023-09-23T14:35:44.294Z,1.85
2023-09-23T14:38:11.858Z,1.35
2023-09-23T14:40:39.518Z,1.00
2023-09-23T14:43:07.535Z,1.00
2023-09-23T14:45:38.115Z,1.17
2023-09-23T14:48:06.273Z,0.77
2023-09-23T14:50:34.116Z,0.90
2023-09-23T14:53:01.924Z,0.82
2023-09-23T14:55:29.573Z,1.00
2023-09-23T14:58:01.108Z,1.00
2023-09-23T15:00:28.583Z,0.82
2023-09-23T15:02:56.143Z,1.10
2023-09-23T15:05:24.153Z,1.83
2023-09-23T15:07:51.763Z,1.83
2023-09-23T15:10:21.320Z,1.70
2023-09-23T15:12:48.957Z,1.67
2023-09-23T15:15:17.971Z,1.23
2023-09-23T15:17:45.996Z,2.50
2023-09-23T15:20:13.775Z,1.38
2023-09-23T15:22:42.125Z,1.60
2023-09-23T15:25:11.016Z,1.08
2023-09-23T15:27:38.932Z,1.45
2023-09-23T15:30:13.153Z,1.05
2023-09-23T15:32:40.858Z,1.70
2023-09-23T15:35:09.226Z,1.50
2023-09-23T15:37:37.044Z,2.20
2023-09-23T15:40:10.257Z,1.83
2023-09-23T15:42:38.126Z,2.33
2023-09-23T15:45:06.385Z,1.70
2023-09-23T15:47:34.071Z,1.77
2023-09-23T15:50:01.430Z,1.45
2023-09-23T15:52:29.043Z,1.85
2023-09-23T15:54:57.446Z,1.63
2023-09-23T15:57:24.876Z,1.40
2023-09-23T15:59:52.239Z,2.42
2023-09-23T16:02:19.787Z,1.98
2023-09-23T16:04:47.689Z,1.63
2023-09-23T16:07:17.146Z,1.90
2023-09-23T16:09:44.478Z,2.00
2023-09-23T16:12:12.140Z,1.55
2023-09-23T16:14:40.558Z,1.38
2023-09-23T16:17:08.643Z,1.27
2023-09-23T16:19:37.071Z,1.40
2023-09-23T16:22:05.141Z,1.52
2023-09-23T16:24:32.472Z,1.40
2023-09-23T16:27:00.021Z,1.20
2023-09-23T16:29:27.757Z,1.33
2023-09-23T16:31:55.616Z,1.20
2023-09-23T16:34:22.940Z,1.40
2023-09-23T16:36:50.822Z,1.30
2023-09-23T16:39:18.370Z,1.90
2023-09-23T16:41:46.118Z,1.23
2023-09-23T16:44:13.926Z,0.90
2023-09-23T16:46:41.538Z,1.10
2023-09-23T16:49:09.263Z,1.10
2023-09-23T16:51:36.624Z,1.60
2023-09-23T16:54:04.916Z,1.67
2023-09-23T16:56:32.469Z,1.90
2023-09-23T16:59:00.750Z,1.73
2023-09-23T17:01:28.379Z,1.75
2023-09-23T17:03:56.251Z,1.80
2023-09-23T17:06:25.299Z,1.25
2023-09-23T17:08:53.068Z,1.58
2023-09-23T17:11:20.979Z,1.48
2023-09-23T17:13:49.004Z,1.00
2023-09-23T17:16:16.804Z,1.02
2023-09-23T17:18:46.049Z,0.68
2023-09-23T17:21:14.552Z,0.77
2023-09-23T17:23:42.167Z,0.90
2023-09-23T17:26:13.244Z,0.63
2023-09-23T17:28:41.636Z,0.50
2023-09-23T17:31:12.949Z,1.08
2023-09-23T17:33:40.771Z,1.08
2023-09-23T17:36:11.167Z,1.35
2023-09-23T17:38:39.345Z,0.90
2023-09-23T17:41:07.022Z,0.65
2023-09-23T17:43:35.329Z,1.00
2023-09-23T17:46:06.586Z,0.70
2023-09-23T17:48:35.124Z,0.70
2023-09-23T17:51:03.055Z,0.95
2023-09-23T17:53:34.716Z,0.90
2023-09-23T17:56:02.984Z,1.10
2023-09-23T17:58:31.476Z,1.00
2023-09-23T18:00:59.764Z,0.90
2023-09-23T18:03:31.795Z,0.93
2023-09-23T18:06:03.340Z,0.85
2023-09-23T18:08:31.316Z,0.80
2023-09-23T18:10:59.130Z,1.10
2023-09-23T18:13:29.277Z,0.90
2023-09-23T18:15:59.271Z,1.25
2023-09-23T18:18:29.198Z,1.70
2023-09-23T18:20:58.179Z,1.10
2023-09-23T18:23:27.060Z,1.48
2023-09-23T18:25:57.484Z,1.20
2023-09-23T18:28:27.237Z,1.67
2023-09-23T18:30:55.706Z,1.50
2023-09-23T18:33:24.871Z,1.33
2023-09-23T18:35:53.727Z,0.88
2023-09-23T18:38:24.335Z,0.82
2023-09-23T18:40:54.270Z,1.10
2023-09-23T18:43:23.076Z,1.02
2023-09-23T18:45:51.420Z,1.58
2023-09-23T18:48:28.019Z,1.65
2023-09-23T18:50:57.582Z,1.58
2023-09-23T18:53:25.623Z,1.80
2023-09-23T18:55:55.640Z,1.20
2023-09-23T18:58:23.168Z,1.55
2023-09-23T19:00:51.120Z,2.80
2023-09-23T19:03:19.889Z,2.20
2023-09-23T19:05:51.064Z,1.70
2023-09-23T19:08:19.303Z,1.73
2023-09-23T19:10:49.616Z,1.17
2023-09-23T19:13:17.902Z,1.20
2023-09-23T19:15:51.364Z,1.10
2023-09-23T19:18:21.535Z,1.30
2023-09-23T19:20:51.188Z,0.90
2023-09-23T19:23:21.471Z,1.35
2023-09-23T19:25:54.045Z,1.27
2023-09-23T19:28:24.261Z,3.25
2023-09-23T19:30:55.237Z,3.08
2023-09-23T19:33:24.369Z,2.50
2023-09-23T19:35:52.606Z,3.15
2023-09-23T19:38:20.610Z,2.65
2023-09-23T19:40:48.681Z,1.58
2023-09-23T19:43:19.002Z,1.67
2023-09-23T19:45:53.973Z,1.45
2023-09-23T19:48:24.062Z,1.40
2023-09-23T19:50:51.807Z,1.42
2023-09-23T19:53:21.019Z,1.45
2023-09-23T19:55:49.719Z,1.42
2023-09-23T19:58:20.199Z,1.60
2023-09-23T20:00:52.925Z,2.50
2023-09-23T20:03:23.005Z,2.28
2023-09-23T20:05:51.060Z,1.92
2023-09-23T20:08:21.036Z,1.75
2023-09-23T20:10:49.711Z,1.40
2023-09-23T20:13:17.996Z,1.60
2023-09-23T20:15:47.709Z,1.50
2023-09-23T20:18:16.251Z,1.73
2023-09-23T20:20:46.475Z,1.45
2023-09-23T20:23:14.852Z,1.20
2023-09-23T20:25:42.632Z,1.65
2023-09-23T20:28:10.870Z,2.25
2023-09-23T20:30:38.721Z,1.85
2023-09-23T20:33:06.677Z,1.55
2023-09-23T20:35:34.820Z,1.80
2023-09-23T20:38:02.780Z,2.03
2023-09-23T20:40:30.637Z,2.42
2023-09-23T20:42:59.831Z,2.50
2023-09-23T20:45:27.437Z,2.28
2023-09-23T20:47:55.623Z,2.10
2023-09-23T20:50:23.735Z,2.28
2023-09-23T20:52:51.588Z,2.55
2023-09-23T20:55:19.285Z,2.22
2023-09-23T20:57:47.174Z,2.22
2023-09-23T21:00:15.984Z,2.35
2023-09-23T21:02:44.014Z,2.65
2023-09-23T21:05:11.641Z,2.97
2023-09-23T21:07:39.058Z,2.70
2023-09-23T21:10:08.218Z,2.80
2023-09-23T21:12:35.579Z,3.05
2023-09-23T21:15:03.250Z,3.25
2023-09-23T21:17:31.903Z,2.95
2023-09-23T21:19:59.136Z,3.28
2023-09-23T21:22:26.400Z,3.53
2023-09-23T21:24:53.546Z,4.20
2023-09-23T21:27:20.647Z,3.15
2023-09-23T21:29:47.749Z,3.05
2023-09-23T21:32:14.911Z,3.47
2023-09-23T21:34:41.988Z,3.63
2023-09-23T21:37:09.303Z,3.20
2023-09-23T21:39:36.542Z,2.78
2023-09-23T21:42:03.623Z,3.40
2023-09-23T21:44:30.744Z,3.45
2023-09-23T21:46:57.942Z,3.20
2023-09-23T21:49:25.092Z,3.08
2023-09-23T21:51:52.155Z,3.50
2023-09-23T21:54:19.177Z,3.25
2023-09-23T21:56:46.285Z,3.33
2023-09-23T21:59:13.511Z,3.42
2023-09-23T22:01:40.704Z,3.67
2023-09-23T22:04:10.842Z,3.45
2023-09-23T22:06:38.501Z,3.80
2023-09-23T22:09:05.912Z,3.53
2023-09-23T22:11:34.917Z,3.67
2023-09-23T22:14:07.594Z,3.38
2023-09-23T22:16:35.830Z,3.55
2023-09-23T22:19:06.364Z,3.92
2023-09-23T22:21:36.529Z,3.83
2023-09-23T22:24:08.865Z,3.60
2023-09-23T22:26:38.647Z,3.17
2023-09-23T22:29:11.031Z,3.42
2023-09-23T22:31:39.935Z,3.60
2023-09-23T22:34:07.650Z,3.85
2023-09-23T22:36:34.955Z,3.70
2023-09-23T22:39:02.255Z,3.25
2023-09-23T22:41:29.797Z,3.50
2023-09-23T22:43:57.353Z,3.08
2023-09-23T22:46:25.484Z,3.30
2023-09-23T22:48:54.846Z,3.13
2023-09-23T22:51:22.395Z,4.05
2023-09-23T22:53:50.707Z,3.75
2023-09-23T22:56:18.692Z,3.42
2023-09-23T22:58:48.515Z,3.40
2023-09-23T23:01:17.551Z,3.53
2023-09-23T23:03:44.889Z,3.65
2023-09-23T23:06:12.249Z,3.70
2023-09-23T23:08:39.808Z,3.40
2023-09-23T23:11:10.654Z,3.67
2023-09-23T23:13:38.386Z,4.13
2023-09-23T23:16:10.170Z,3.45
2023-09-23T23:18:37.384Z,3.75
2023-09-23T23:21:05.052Z,3.70
2023-09-23T23:23:32.811Z,3.90
2023-09-23T23:26:05.306Z,3.28
2023-09-23T23:31:03.379Z,3.85
2023-09-23T23:33:30.592Z,3.42
2023-09-23T23:36:01.994Z,3.67
2023-09-23T23:38:30.194Z,3.65
2023-09-23T23:40:57.701Z,3.22
2023-09-23T23:43:25.622Z,3.55
2023-09-23T23:46:03.572Z,4.03
2023-09-23T23:48:33.006Z,3.97
2023-09-23T23:51:11.357Z,3.60
2023-09-23T23:53:39.231Z,4.32
2023-09-23T23:56:07.249Z,3.90
2023-09-23T23:58:34.531Z,3.75
